createdAt,value
2023-03-24T00:02:10.630Z,11.57
2023-03-24T00:05:41.580Z,11.54
2023-03-24T00:09:11.518Z,11.54
2023-03-24T00:12:42.258Z,11.57
2023-03-24T00:16:12.553Z,11.61
2023-03-24T00:19:43.345Z,11.65
2023-03-24T00:23:17.596Z,11.68
2023-03-24T00:27:35.859Z,11.67
2023-03-24T00:34:20.182Z,11.61
2023-03-24T00:37:52.427Z,11.59
2023-03-24T00:41:25.445Z,11.59
2023-03-24T00:44:56.233Z,11.58
2023-03-24T00:48:26.481Z,11.57
2023-03-24T00:52:44.316Z,11.58
2023-03-24T00:57:12.694Z,11.61
2023-03-24T01:01:41.041Z,11.66
2023-03-24T01:05:30.800Z,11.71
2023-03-24T01:09:01.763Z,11.75
2023-03-24T01:12:31.416Z,11.77
2023-03-24T01:16:09.653Z,11.76
2023-03-24T01:20:12.086Z,11.77
2023-03-24T01:23:49.803Z,11.77
2023-03-24T01:27:20.109Z,11.73
2023-03-24T01:30:43.383Z,11.65
2023-03-24T01:34:18.196Z,11.58
2023-03-24T01:37:49.846Z,11.55
2023-03-24T01:41:23.953Z,11.55
2023-03-24T01:45:04.422Z,11.57
2023-03-24T01:53:55.503Z,11.61
2023-03-24T01:57:35.016Z,11.60
2023-03-24T02:01:12.445Z,11.61
2023-03-24T02:04:42.482Z,11.60
2023-03-24T02:12:03.506Z,11.60
2023-03-24T02:16:44.813Z,11.60
2023-03-24T02:24:30.581Z,11.60
2023-03-24T02:28:04.652Z,11.56
2023-03-24T02:31:58.353Z,11.56
2023-03-24T02:35:48.074Z,11.62
2023-03-24T02:39:21.097Z,11.66
2023-03-24T02:43:34.836Z,11.68
2023-03-24T02:47:18.396Z,11.67
2023-03-24T02:52:05.179Z,11.68
2023-03-24T02:59:52.728Z,11.73
2023-03-24T03:03:40.912Z,11.74
2023-03-24T03:08:04.748Z,11.75
2023-03-24T03:11:46.278Z,11.75
2023-03-24T03:15:22.297Z,11.75
2023-03-24T03:18:58.928Z,11.76
2023-03-24T03:22:32.355Z,11.76
2023-03-24T03:26:06.732Z,11.80
2023-03-24T03:29:43.333Z,11.80
2023-03-24T03:33:13.509Z,11.79
2023-03-24T03:36:52.934Z,11.80
2023-03-24T03:40:23.006Z,11.78
2023-03-24T03:43:52.475Z,11.78
2023-03-24T03:47:22.327Z,11.79
2023-03-24T03:51:06.267Z,11.80
2023-03-24T03:54:28.476Z,11.80
2023-03-24T03:58:00.984Z,11.80
2023-03-24T04:01:33.499Z,11.80
2023-03-24T04:06:00.345Z,11.80
2023-03-24T04:10:00.521Z,11.77
2023-03-24T04:13:42.414Z,11.74
2023-03-24T04:18:20.127Z,11.73
2023-03-24T04:22:18.453Z,11.69
2023-03-24T04:25:51.542Z,11.68
2023-03-24T04:29:27.397Z,11.69
2023-03-24T04:33:13.243Z,11.67
2023-03-24T04:37:36.097Z,11.63
2023-03-24T04:41:44.315Z,11.63
2023-03-24T04:45:14.147Z,11.63
2023-03-24T04:48:44.224Z,11.65
2023-03-24T04:52:16.861Z,11.68
2023-03-24T04:55:54.275Z,11.75
2023-03-24T04:59:24.095Z,11.81
2023-03-24T05:03:41.396Z,11.87
2023-03-24T05:08:09.902Z,11.97
2023-03-24T05:11:53.418Z,12.06
2023-03-24T05:15:32.167Z,12.14
2023-03-24T05:19:02.995Z,12.22
2023-03-24T05:22:35.356Z,12.27
2023-03-24T05:26:06.199Z,12.31
2023-03-24T05:30:12.176Z,12.34
2023-03-24T05:34:33.331Z,12.33
2023-03-24T05:41:19.469Z,12.44
2023-03-24T05:44:34.898Z,12.50
2023-03-24T05:48:07.119Z,12.58
2023-03-24T05:51:36.246Z,12.67
2023-03-24T05:55:07.081Z,12.75
2023-03-24T05:58:37.116Z,12.82
2023-03-24T06:02:07.029Z,12.86
2023-03-24T06:04:34.692Z,12.91
2023-03-24T06:07:02.529Z,12.94
2023-03-24T06:09:35.307Z,13.00
2023-03-24T06:12:04.425Z,13.09
2023-03-24T06:14:33.362Z,13.16
2023-03-24T06:17:00.953Z,13.22
2023-03-24T06:19:30.340Z,13.28
2023-03-24T06:22:02.314Z,13.35
2023-03-24T06:24:30.176Z,13.42
2023-03-24T06:27:01.720Z,13.45
2023-03-24T06:29:30.676Z,13.45
2023-03-24T06:31:57.875Z,13.48
2023-03-24T06:34:25.671Z,13.50
2023-03-24T06:36:52.808Z,13.56
2023-03-24T06:39:20.519Z,13.61
2023-03-24T06:41:47.775Z,13.68
2023-03-24T06:44:15.161Z,13.71
2023-03-24T06:46:42.448Z,13.74
2023-03-24T06:49:09.662Z,13.76
2023-03-24T06:51:37.026Z,13.74
2023-03-24T06:54:04.458Z,13.73
2023-03-24T06:56:31.861Z,13.73
2023-03-24T06:58:59.107Z,13.76
2023-03-24T07:01:26.786Z,13.80
2023-03-24T07:03:54.091Z,13.82
2023-03-24T07:06:22.441Z,13.82
2023-03-24T07:08:50.791Z,13.79
2023-03-24T07:11:18.171Z,13.73
2023-03-24T07:13:45.497Z,13.69
2023-03-24T07:16:12.765Z,13.66
2023-03-24T07:18:40.019Z,13.68
2023-03-24T07:21:08.046Z,13.73
2023-03-24T07:23:35.283Z,13.82
2023-03-24T07:26:02.586Z,13.94
2023-03-24T07:28:29.920Z,14.03
2023-03-24T07:30:57.423Z,14.10
2023-03-24T07:33:26.040Z,14.11
2023-03-24T07:35:57.377Z,14.07
2023-03-24T07:38:26.012Z,14.03
2023-03-24T07:40:53.224Z,13.96
2023-03-24T07:43:22.180Z,13.91
2023-03-24T07:45:49.871Z,13.87
2023-03-24T07:48:17.400Z,13.83
2023-03-24T07:50:44.851Z,13.79
2023-03-24T07:53:14.427Z,13.76
2023-03-24T07:55:41.633Z,13.73
2023-03-24T07:58:08.996Z,13.72
2023-03-24T08:00:37.090Z,13.71
2023-03-24T08:03:04.755Z,13.70
2023-03-24T08:05:32.247Z,13.72
2023-03-24T08:07:59.750Z,13.79
2023-03-24T08:10:29.746Z,13.88
2023-03-24T08:12:58.585Z,14.00
2023-03-24T08:15:27.482Z,14.15
2023-03-24T08:17:56.169Z,14.35
2023-03-24T08:20:26.677Z,14.59
2023-03-24T08:22:54.251Z,14.84
2023-03-24T08:25:25.478Z,15.10
2023-03-24T08:27:53.856Z,15.37
2023-03-24T08:30:24.404Z,15.67
2023-03-24T08:32:58.878Z,15.94
2023-03-24T08:35:31.305Z,16.17
2023-03-24T08:38:00.573Z,16.39
2023-03-24T08:40:31.308Z,16.53
2023-03-24T08:43:02.720Z,16.65
2023-03-24T08:45:32.243Z,16.69
2023-03-24T08:48:03.681Z,16.80
2023-03-24T08:50:35.948Z,16.90
2023-03-24T08:53:04.284Z,16.91
2023-03-24T08:55:32.321Z,16.91
2023-03-24T08:58:00.705Z,16.95
2023-03-24T09:00:28.585Z,17.03
2023-03-24T09:02:56.739Z,17.14
2023-03-24T09:05:40.722Z,17.24
2023-03-24T09:08:09.278Z,17.30
2023-03-24T09:10:36.711Z,17.26
2023-03-24T09:13:04.750Z,17.12
2023-03-24T09:15:32.975Z,17.02
2023-03-24T09:18:00.477Z,16.93
2023-03-24T09:20:27.623Z,16.86
2023-03-24T09:22:55.675Z,16.79
2023-03-24T09:25:23.775Z,16.72
2023-03-24T09:27:51.118Z,16.66
2023-03-24T09:30:19.000Z,16.68
2023-03-24T09:32:46.261Z,16.67
2023-03-24T09:35:14.516Z,16.64
2023-03-24T09:37:43.374Z,16.63
2023-03-24T09:40:21.737Z,16.61
2023-03-24T09:43:06.308Z,16.61
2023-03-24T09:45:48.336Z,16.58
2023-03-24T09:48:41.979Z,16.60
2023-03-24T09:51:23.540Z,16.67
2023-03-24T09:54:27.888Z,16.80
2023-03-24T09:56:57.615Z,17.04
2023-03-24T09:59:41.747Z,17.21
2023-03-24T10:02:16.279Z,17.47
2023-03-24T10:04:49.218Z,17.68
2023-03-24T10:07:52.127Z,17.85
2023-03-24T10:10:58.599Z,18.05
2023-03-24T10:14:04.367Z,18.26
2023-03-24T10:17:13.733Z,18.50
2023-03-24T10:20:30.440Z,18.63
2023-03-24T10:23:13.922Z,18.82
2023-03-24T10:25:52.669Z,19.04
2023-03-24T10:28:28.957Z,19.15
2023-03-24T10:31:02.451Z,19.16
2023-03-24T10:33:30.830Z,19.21
2023-03-24T10:36:14.337Z,19.27
2023-03-24T10:38:42.020Z,19.25
2023-03-24T10:41:19.642Z,19.15
2023-03-24T10:43:50.067Z,19.10
2023-03-24T10:46:24.923Z,19.06
2023-03-24T10:49:13.884Z,18.97
2023-03-24T10:51:56.261Z,18.98
2023-03-24T10:54:28.442Z,18.97
2023-03-24T10:56:59.877Z,18.99
2023-03-24T10:59:50.282Z,19.08
2023-03-24T11:02:23.894Z,19.14
2023-03-24T11:05:15.076Z,19.11
2023-03-24T11:07:47.430Z,19.00
2023-03-24T11:10:24.872Z,18.91
2023-03-24T11:12:55.162Z,18.72
2023-03-24T11:15:34.172Z,18.58
2023-03-24T11:18:16.131Z,18.56
2023-03-24T11:20:50.381Z,18.56
2023-03-24T11:23:17.485Z,18.47
2023-03-24T11:26:01.264Z,18.38
2023-03-24T11:28:34.945Z,18.35
2023-03-24T11:31:09.399Z,18.29
2023-03-24T11:33:49.679Z,18.25
2023-03-24T11:36:37.489Z,18.21
2023-03-24T11:39:23.100Z,18.22
2023-03-24T11:42:10.501Z,18.24
2023-03-24T11:44:37.674Z,18.28
2023-03-24T11:47:29.275Z,18.33
2023-03-24T11:50:11.803Z,18.31
2023-03-24T11:52:52.192Z,18.29
2023-03-24T11:55:49.119Z,18.30
2023-03-24T11:58:36.024Z,18.31
2023-03-24T12:01:12.192Z,18.28
2023-03-24T12:04:02.720Z,18.23
2023-03-24T12:07:14.257Z,18.22
2023-03-24T12:10:23.122Z,18.11
2023-03-24T12:13:29.922Z,17.90
2023-03-24T12:16:08.830Z,17.71
2023-03-24T12:18:51.365Z,17.56
2023-03-24T12:21:36.315Z,17.43
2023-03-24T12:24:37.905Z,17.36
2023-03-24T12:27:05.336Z,17.29
2023-03-24T12:30:20.434Z,17.24
2023-03-24T12:33:01.654Z,17.18
2023-03-24T12:35:40.902Z,17.13
2023-03-24T12:38:16.405Z,17.12
2023-03-24T12:41:12.367Z,17.11
2023-03-24T12:44:06.137Z,17.11
2023-03-24T12:47:19.866Z,17.18
2023-03-24T12:50:05.325Z,17.34
2023-03-24T12:52:58.098Z,17.42
2023-03-24T12:55:38.969Z,17.47
2023-03-24T12:58:08.828Z,17.49
2023-03-24T13:00:56.693Z,17.45
2023-03-24T13:04:00.686Z,17.37
2023-03-24T13:06:36.563Z,17.24
2023-03-24T13:09:58.935Z,17.14
2023-03-24T13:12:36.098Z,17.08
2023-03-24T13:15:13.571Z,17.03
2023-03-24T13:18:12.043Z,16.98
2023-03-24T13:20:56.721Z,16.89
2023-03-24T13:23:40.924Z,16.84
2023-03-24T13:26:27.862Z,16.81
2023-03-24T13:29:06.888Z,16.78
2023-03-24T13:32:09.428Z,16.72
2023-03-24T13:34:49.158Z,16.66
2023-03-24T13:37:33.084Z,16.60
2023-03-24T13:40:22.750Z,16.57
2023-03-24T13:43:00.821Z,16.54
2023-03-24T13:45:42.006Z,16.51
2023-03-24T13:48:11.659Z,16.54
2023-03-24T13:51:21.749Z,16.59
2023-03-24T13:54:16.916Z,16.72
2023-03-24T13:56:54.455Z,16.84
2023-03-24T14:00:08.623Z,16.96
2023-03-24T14:02:58.492Z,17.09
2023-03-24T14:05:35.273Z,17.15
2023-03-24T14:08:05.647Z,17.10
2023-03-24T14:10:52.476Z,17.03
2023-03-24T14:13:22.478Z,16.94
2023-03-24T14:15:59.093Z,16.87
2023-03-24T14:18:28.647Z,16.79
2023-03-24T14:20:59.273Z,16.66
2023-03-24T14:23:53.052Z,16.55
2023-03-24T14:26:37.202Z,16.43
2023-03-24T14:29:52.205Z,16.37
2023-03-24T14:32:25.928Z,16.43
2023-03-24T14:35:02.306Z,16.53
2023-03-24T14:37:37.748Z,16.62
2023-03-24T14:40:36.370Z,16.69
2023-03-24T14:43:44.519Z,16.81
2023-03-24T14:46:22.914Z,16.85
2023-03-24T14:49:19.625Z,16.81
2023-03-24T14:52:09.659Z,16.79
2023-03-24T14:54:55.876Z,16.74
2023-03-24T14:57:28.120Z,16.65
2023-03-24T15:00:49.302Z,16.62
2023-03-24T15:03:47.534Z,16.56
2023-03-24T15:06:26.782Z,16.55
2023-03-24T15:09:00.173Z,16.57
2023-03-24T15:11:41.519Z,16.57
2023-03-24T15:14:28.596Z,16.59
2023-03-24T15:17:28.010Z,16.64
2023-03-24T15:19:57.355Z,16.67
2023-03-24T15:22:30.401Z,16.71
2023-03-24T15:25:01.098Z,16.73
2023-03-24T15:27:39.701Z,16.72
2023-03-24T15:30:16.597Z,16.69
2023-03-24T15:32:51.811Z,16.64
2023-03-24T15:35:22.893Z,16.55
2023-03-24T15:37:56.483Z,16.51
2023-03-24T15:40:26.677Z,16.51
2023-03-24T15:43:02.804Z,16.52
2023-03-24T15:45:45.452Z,16.53
2023-03-24T15:48:26.967Z,16.54
2023-03-24T15:51:14.436Z,16.55
2023-03-24T15:54:02.377Z,16.56
2023-03-24T15:56:34.454Z,16.57
2023-03-24T15:59:17.890Z,16.54
2023-03-24T16:01:51.492Z,16.50
2023-03-24T16:04:24.533Z,16.46
2023-03-24T16:06:59.503Z,16.42
2023-03-24T16:09:43.563Z,16.37
2023-03-24T16:12:14.831Z,16.32
2023-03-24T16:14:43.747Z,16.29
2023-03-24T16:17:17.190Z,16.28
2023-03-24T16:19:46.126Z,16.28
2023-03-24T16:22:17.586Z,16.28
2023-03-24T16:24:48.369Z,16.30
2023-03-24T16:27:18.063Z,16.29
2023-03-24T16:29:47.139Z,16.28
2023-03-24T16:32:16.752Z,16.27
2023-03-24T16:34:48.342Z,16.27
2023-03-24T16:37:19.546Z,16.25
2023-03-24T16:39:52.629Z,16.18
2023-03-24T16:42:20.671Z,16.01
2023-03-24T16:44:51.004Z,15.82
2023-03-24T16:47:22.469Z,15.77
2023-03-24T16:49:49.938Z,15.74
2023-03-24T16:52:18.373Z,15.68
2023-03-24T16:54:48.080Z,15.54
2023-03-24T16:57:22.662Z,15.31
2023-03-24T16:59:51.313Z,15.20
2023-03-24T17:03:01.788Z,15.16
2023-03-24T17:05:42.928Z,15.02
2023-03-24T17:08:10.524Z,14.86
2023-03-24T17:10:40.877Z,14.73
2023-03-24T17:13:17.057Z,14.71
2023-03-24T17:15:44.670Z,14.73
2023-03-24T17:18:12.254Z,14.85
2023-03-24T17:20:39.794Z,15.05
2023-03-24T17:23:11.114Z,15.13
2023-03-24T17:29:02.073Z,13.27
2023-03-24T17:31:31.797Z,12.88
2023-03-24T17:34:08.542Z,12.59
2023-03-24T17:36:40.283Z,12.38
2023-03-24T17:39:16.050Z,12.22
2023-03-24T17:41:44.910Z,12.06
2023-03-24T17:44:13.718Z,11.97
2023-03-24T17:46:41.847Z,11.90
2023-03-24T17:49:10.557Z,11.85
2023-03-24T17:51:39.646Z,11.78
2023-03-24T17:54:09.872Z,11.73
2023-03-24T17:56:38.186Z,11.65
2023-03-24T17:59:07.209Z,11.60
2023-03-24T18:01:38.970Z,11.62
2023-03-24T18:04:08.109Z,11.65
2023-03-24T18:06:37.963Z,11.65
2023-03-24T18:09:07.188Z,11.63
2023-03-24T18:11:38.491Z,11.60
2023-03-24T18:14:09.424Z,11.56
2023-03-24T18:16:39.158Z,11.52
2023-03-24T18:19:07.627Z,11.51
2023-03-24T18:21:36.333Z,11.48
2023-03-24T18:24:06.654Z,11.45
2023-03-24T18:26:34.694Z,11.44
2023-03-24T18:29:03.357Z,11.44
2023-03-24T18:31:32.441Z,11.43
2023-03-24T18:34:04.375Z,11.42
2023-03-24T18:36:32.671Z,11.40
2023-03-24T18:39:06.557Z,11.40
2023-03-24T18:41:49.157Z,11.40
2023-03-24T18:44:19.584Z,11.40
2023-03-24T18:46:50.447Z,11.38
2023-03-24T18:49:18.586Z,11.35
2023-03-24T18:51:46.541Z,11.34
2023-03-24T18:54:14.057Z,11.32
2023-03-24T18:56:41.917Z,11.27
2023-03-24T18:59:11.153Z,11.22
2023-03-24T19:01:38.453Z,11.19
2023-03-24T19:04:05.893Z,11.22
2023-03-24T19:06:33.857Z,11.16
2023-03-24T19:09:01.306Z,11.13
2023-03-24T19:11:28.585Z,11.16
2023-03-24T19:13:56.860Z,11.16
2023-03-24T19:16:24.566Z,11.13
2023-03-24T19:18:52.557Z,11.06
2023-03-24T19:21:24.031Z,11.02
2023-03-24T19:23:52.619Z,11.02
2023-03-24T19:26:20.711Z,11.00
2023-03-24T19:28:48.742Z,10.98
2023-03-24T19:31:18.603Z,10.97
2023-03-24T19:33:47.346Z,10.94
2023-03-24T19:36:15.026Z,10.91
2023-03-24T19:38:42.595Z,10.81
2023-03-24T19:41:13.357Z,10.78
2023-03-24T19:43:40.908Z,10.76
2023-03-24T19:46:08.554Z,10.71
2023-03-24T19:48:37.303Z,10.71
2023-03-24T19:51:05.163Z,10.68
2023-03-24T19:53:32.582Z,10.66
2023-03-24T19:56:00.669Z,10.61
2023-03-24T19:58:28.244Z,10.57
2023-03-24T20:00:55.439Z,10.43
2023-03-24T20:03:23.424Z,10.31
2023-03-24T20:05:51.020Z,10.26
2023-03-24T20:08:18.673Z,10.21
2023-03-24T20:10:46.645Z,10.14
2023-03-24T20:13:14.172Z,10.07
2023-03-24T20:15:41.528Z,10.08
2023-03-24T20:18:10.314Z,10.02
2023-03-24T20:20:37.805Z,9.91
2023-03-24T20:23:05.032Z,9.64
2023-03-24T20:25:32.222Z,9.49
2023-03-24T20:27:59.534Z,9.40
2023-03-24T20:30:28.284Z,9.40
2023-03-24T20:32:57.265Z,9.41
2023-03-24T20:35:25.734Z,9.40
2023-03-24T20:37:52.845Z,9.39
2023-03-24T20:40:21.269Z,9.37
2023-03-24T20:42:48.859Z,9.37
2023-03-24T20:45:16.077Z,9.37
2023-03-24T20:47:43.437Z,9.38
2023-03-24T20:50:11.244Z,9.41
2023-03-24T20:52:38.456Z,9.40
2023-03-24T20:55:06.323Z,9.41
2023-03-24T20:57:34.239Z,9.43
2023-03-24T21:00:01.661Z,9.43
2023-03-24T21:02:31.250Z,9.43
2023-03-24T21:04:58.449Z,9.42
2023-03-24T21:07:26.430Z,9.45
2023-03-24T21:09:53.581Z,9.44
2023-03-24T21:12:21.413Z,9.44
2023-03-24T21:14:48.724Z,9.46
2023-03-24T21:17:18.821Z,9.47
2023-03-24T21:19:46.462Z,9.51
2023-03-24T21:22:14.785Z,9.53
2023-03-24T21:24:42.054Z,9.56
2023-03-24T21:27:09.497Z,9.56
2023-03-24T21:29:36.683Z,9.59
2023-03-24T21:32:04.150Z,9.62
2023-03-24T21:34:31.828Z,9.64
2023-03-24T21:37:00.901Z,9.62
2023-03-24T21:39:28.586Z,9.62
2023-03-24T21:41:55.843Z,9.61
2023-03-24T21:44:23.201Z,9.56
2023-03-24T21:46:50.409Z,9.51
2023-03-24T21:49:18.615Z,9.45
2023-03-24T21:51:46.194Z,9.46
2023-03-24T21:54:14.329Z,9.44
2023-03-24T21:56:41.954Z,9.37
2023-03-24T21:59:10.653Z,9.34
2023-03-24T22:01:37.905Z,9.28
2023-03-24T22:04:08.080Z,9.20
2023-03-24T22:06:37.035Z,9.17
2023-03-24T22:09:09.855Z,9.11
2023-03-24T22:11:41.996Z,9.09
2023-03-24T22:14:09.294Z,9.07
2023-03-24T22:16:36.703Z,9.08
2023-03-24T22:19:03.943Z,9.05
2023-03-24T22:21:31.640Z,9.00
2023-03-24T22:23:58.947Z,8.95
2023-03-24T22:26:26.238Z,8.92
2023-03-24T22:28:55.592Z,8.86
2023-03-24T22:31:23.799Z,8.80
2023-03-24T22:33:51.514Z,8.74
2023-03-24T22:36:18.740Z,8.72
2023-03-24T22:38:46.121Z,8.68
2023-03-24T22:41:13.502Z,8.65
2023-03-24T22:43:41.298Z,8.58
2023-03-24T22:46:10.409Z,8.54
2023-03-24T22:48:38.890Z,8.54
2023-03-24T22:51:06.748Z,8.54
2023-03-24T22:53:35.532Z,8.54
2023-03-24T22:56:03.064Z,8.53
2023-03-24T22:58:30.229Z,8.50
